Flight Track Log - Related Links

Times and Time Zones

All times are in EDT time to prevent confusion due to time zone crossing. See the DAL5889 flight status page for this flight to view local times or setup timezone preferences in your user account.

Time Position Orientation Groundspeed Altitude Reporting Facility
EDT Latitude Longitude Course Direction KTS MPH feet Rate Location/Type
Wed 04:42:01 PM 42.3500 -71.0167 259° West 141 162 700  Level KA90
Wed 04:42:32 PM 42.3333 -71.0167 180° South 158 182 1,700 1,775 Climbing KA90
Wed 04:43:12 PM 42.3128 -70.9742 123° Southeast 192 221 2,800 2,529 Climbing Boston Center
Wed 04:44:14 PM 42.3208 -70.8719 84° East 260 299 6,000 2,976 Climbing Boston Center
Wed 04:45:00 PM 42.0727 -71.5517 234° Southwest  Level Estimated
Wed 04:45:15 PM 42.3219 -70.7664 89° East 301 346 8,900  Level Boston Center
Wed 04:46:00 PM 42.0798 -71.7237 259° West  Level FlightAware Approximate
Wed 04:46:16 PM 42.2539 -70.7225 154° Southeast 295 339 11,400  Level Boston Center
Wed 04:47:00 PM 42.0554 -71.8879 259° West  Level FlightAware Approximate
Wed 04:47:18 PM 42.1825 -70.7778 210° Southwest 324 373 13,700  Level Boston Center
Wed 04:48:19 PM 42.1669 -70.9083 261° West 318 366 14,100 195 Climbing Boston Center
Wed 04:49:21 PM 42.1528 -71.0233 261° West 317 365 14,100  Level Boston Center
Wed 04:50:22 PM 42.1375 -71.1453 260° West 310 357 14,100  Level Boston Center
Wed 04:51:24 PM 42.1244 -71.2611 261° West 311 358 14,100  Level Boston Center
Wed 04:52:25 PM 42.1094 -71.3786 260° West 318 366 14,100 -49 Level Boston Center
Wed 04:53:27 PM 42.0942 -71.5044 261° West 318 366 14,000  Descending Boston Center
Wed 04:54:28 PM 42.0792 -71.6219 260° West 320 368 14,100 49 Climbing Boston Center
Wed 04:55:30 PM 42.0644 -71.7450 261° West 315 362 14,100  Level Boston Center
Wed 04:56:31 PM 42.0497 -71.8594 260° West 311 358 14,100  Level Boston Center
Wed 04:57:33 PM 42.0342 -71.9800 260° West 313 360 14,100  Level Boston Center
Wed 04:58:34 PM 42.0192 -72.0967 260° West 318 366 14,100 -49 Level Boston Center
Wed 04:59:36 PM 42.0042 -72.2111 260° West 314 361 14,000 -49 Descending Boston Center
Wed 05:00:37 PM 41.9881 -72.3356 260° West 314 361 14,000  Level Boston Center
Wed 05:01:39 PM 41.9728 -72.4494 260° West 314 361 14,000  Level Boston Center
Wed 05:02:40 PM 41.9569 -72.5725 260° West 310 357 14,000  Level Boston Center
Wed 05:03:42 PM 41.9433 -72.6717 260° West 310 357 14,000  Level Boston Center
Wed 05:04:43 PM 41.8997 -72.7889 243° Southwest 299 344 14,000  Level Boston Center
Wed 05:05:45 PM 41.8581 -72.8892 241° Southwest 304 350 14,000  Level Boston Center
Wed 05:06:47 PM 41.8161 -72.9900 241° Southwest 306 352 14,000  Level Boston Center
Wed 05:07:48 PM 41.7711 -73.0958 240° Southwest 306 352 14,000  Level Boston Center
Wed 05:08:50 PM 41.7294 -73.1950 241° Southwest 305 351 14,000  Level Boston Center
Wed 05:09:51 PM 41.6883 -73.2931 241° Southwest 304 350 14,000 -341 Level Boston Center
Wed 05:10:53 PM 41.6656 -73.4011 254° West 295 339 13,300 -683 Descending Boston Center
Wed 05:11:54 PM 41.6572 -73.5064 264° West 287 330 12,600 -732 Descending Boston Center
Wed 05:12:56 PM 41.6489 -73.6169 264° West 282 325 11,800 -726 Descending Boston Center
Wed 05:13:58 PM 41.6394 -73.7192 263° West 281 323 11,100 -683 Descending Boston Center
Wed 05:14:59 PM 41.6211 -73.8158 256° West 279 321 10,400 -683 Descending Boston Center
Wed 05:16:01 PM 41.5419 -73.8475 197° South 277 319 9,700 -683 Descending Boston Center
Wed 05:17:02 PM 41.4664 -73.8722 194° South 277 319 9,000 -683 Descending Boston Center
Wed 05:18:04 PM 41.3931 -73.8450 164° South 284 327 8,300 -488 Descending Boston Center
Wed 05:19:05 PM 41.3231 -73.7803 145° Southeast 284 327 8,000 -120 Descending Boston Center
Wed 05:20:34 PM 41.2333 -73.7000 146° Southeast 286 329 8,000 -242 Level New York TRACON
Wed 05:21:34 PM 41.1500 -73.6667 163° South 273 314 7,400 -650 Descending New York TRACON
Wed 05:22:34 PM 41.0833 -73.6667 180° South 300 345 6,700 -762 Descending New York TRACON
Wed 05:23:40 PM 41.0000 -73.6500 171° South 274 315 5,800 -857 Descending New York TRACON
Wed 05:24:40 PM 40.9167 -73.6333 171° South 277 319 4,900 -900 Descending New York TRACON
Wed 05:25:40 PM 40.8500 -73.6500 191° South 268 308 4,000 -450 Descending New York TRACON
Wed 05:26:40 PM 40.7833 -73.7000 210° Southwest 263 303 4,000  Level New York TRACON
Wed 05:27:40 PM 40.7667 -73.7833 255° West 256 295 4,000  Level New York TRACON
Wed 05:28:40 PM 40.7833 -73.8833 282° West 258 297 4,000  Level New York TRACON
Wed 05:29:40 PM 40.7667 -73.9667 255° West 261 300 4,000  Level New York TRACON
Wed 05:30:40 PM 40.7167 -74.0333 225° Southwest 253 291 4,000 -526 Level New York TRACON
Wed 05:31:34 PM 40.6833 -74.0000 143° Southeast 248 285 3,000 -737 Descending New York TRACON
Wed 05:32:34 PM 40.7167 -73.9333 57° Northeast 193 222 2,600 -762 Descending New York TRACON
Wed 05:33:40 PM 40.7333 -73.8667 72° East 160 184 1,400 -900 Descending New York TRACON
Wed 05:34:34 PM 40.7500 -73.8333 57° Northeast 139 160 800 -667 Descending New York TRACON

Login

Don't have an account? Register now (free) for customized features, flight alerts, and more!